Cherry Valley

*Note: All times are displayed in the local standard time of the station location.
**Rain - Equipment is designed to accurately record liquid precipitation; under conditions when precipitation is not in liquid form, the data displayed may not properly reflect rainfall values.

Date Max Temp
(°C)
Min Temp
(°C)
Avg Temp
(°C)
Rain (mm) Avg RH (%)
Tue, Jan 15, 2019 0.8 -7.2 -1.8 0.0 89.7
Mon, Jan 14, 2019 -4.2 -13.1 -8.4 0.0 85.5
Sun, Jan 13, 2019 -6.8 -16.0 -12.3 0.0 75.9
Sat, Jan 12, 2019 -6.1 -14.1 -10.3 0.0 61.4
Fri, Jan 11, 2019 -10.5 -16.6 -13.1 0.0 61.4
Thu, Jan 10, 2019 -4.1 -13.3 -7.5 0.0 70.5
Wed, Jan 09, 2019 2.0 -4.2 -0.4 0.6 83.3
DateTime Avg Temp (°C) Rain (mm) RH (%)
Wed, Jan 16, 2019 05:00 -1.6 0.0 96.8
Wed, Jan 16, 2019 04:00 -1.9 0.0 96.4
Wed, Jan 16, 2019 03:00 -2.2 0.0 95.2
Wed, Jan 16, 2019 02:00 -2.1 0.0 91.3
Wed, Jan 16, 2019 01:00 -1.9 0.0 87.8
Wed, Jan 16, 2019 00:00 -1.7 0.0 85.4
Tue, Jan 15, 2019 23:00 -1.3 0.0 87.5
Tue, Jan 15, 2019 22:00 -1.0 0.0 87.9
Tue, Jan 15, 2019 21:00 -0.9 0.0 90.9
Tue, Jan 15, 2019 20:00 -0.9 0.0 97.6
Tue, Jan 15, 2019 19:00 -0.6 0.0 91.9
Tue, Jan 15, 2019 18:00 -0.1 0.0 84.5
Tue, Jan 15, 2019 17:00 0.0 0.0 82.8
Tue, Jan 15, 2019 16:00 0.1 0.0 83.7
Tue, Jan 15, 2019 15:00 0.1 0.0 85.7
Tue, Jan 15, 2019 14:00 -0.2 0.0 90.0
Tue, Jan 15, 2019 13:00 0.2 0.0 88.2
Tue, Jan 15, 2019 12:00 0.6 0.0 87.0
Tue, Jan 15, 2019 11:00 -0.2 0.0 90.1
Tue, Jan 15, 2019 10:00 -1.2 0.0 93.3
Tue, Jan 15, 2019 09:00 -1.6 0.0 90.9
Tue, Jan 15, 2019 08:00 -2.7 0.0 90.6
Tue, Jan 15, 2019 07:00 -3.1 0.0 88.3
Tue, Jan 15, 2019 06:00 -2.9 0.0 87.5
Tue, Jan 15, 2019 05:00 -3.3 0.0 88.3
Tue, Jan 15, 2019 04:00 -5.3 0.0 95.8
Tue, Jan 15, 2019 03:00 -5.6 0.0 94.4
Tue, Jan 15, 2019 02:00 -5.1 0.0 94.2
Tue, Jan 15, 2019 01:00 -6.8 0.0 96.8
Tue, Jan 15, 2019 00:00 -5.0 0.0 88.8
Mon, Jan 14, 2019 23:00 -4.5 0.0 87.9
Mon, Jan 14, 2019 22:00 -4.3 0.0 85.5
Mon, Jan 14, 2019 21:00 -4.3 0.0 83.2
Mon, Jan 14, 2019 20:00 -4.5 0.0 81.7
Mon, Jan 14, 2019 19:00 -4.9 0.0 83.3
Mon, Jan 14, 2019 18:00 -5.1 0.0 83.3
Mon, Jan 14, 2019 17:00 -5.3 0.0 81.7
Mon, Jan 14, 2019 16:00 -5.4 0.0 79.5
Mon, Jan 14, 2019 15:00 -5.6 0.0 74.6
Mon, Jan 14, 2019 14:00 -5.3 0.0 61.1
Mon, Jan 14, 2019 13:00 -6.1 0.0 64.2
Mon, Jan 14, 2019 12:00 -7.8 0.0 78.8
Mon, Jan 14, 2019 11:00 -10.0 0.0 94.5
Mon, Jan 14, 2019 10:00 -11.4 0.0 96.1
Mon, Jan 14, 2019 09:00 -11.9 0.0 96.2
Mon, Jan 14, 2019 08:00 -12.0 0.0 96.9
Mon, Jan 14, 2019 07:00 -12.1 0.0 95.8
Mon, Jan 14, 2019 06:00 -12.2 0.0 93.8


asterix Register now to access more data! asterix